»·PEaware :: QXE2704 KSEA-KPDX

QXE2704 :: KSEA-KPDX

FLIGHT INFORMATION

Flight Status: Arrived
Operator:
Horizon Air
More flights by this operator :: More flights under this callsign
Pilot: Adlai G. (28854)
Aircraft: DEHAVILLAND DASH 8 400
(DH8D)
More flights by this aircraft type
Origin: KSEA Seattle-Tacoma Intl
United States
Destination: KPDX Portland Intl
United States
More flights between these airports :: More routes between these airports
Route: +SEA7 BUWZO KRATR2
File this flight plan on PilotEdge
Remarks:
Altitude:
(Current/Filed)
17,000ft
Speed:
(Current/Filed)
363kts
Departed: 19-May-20 11:39 AM
Arrived: 19-May-20 12:10 PM
Distance/Time
Traveled:
112nm/0:31
Distance/Time
To Go:
Arrived

Flight Plot

Page will automatically refresh every two minutes.

Flight plan parsing failed; only flown route is shown


Map Options




Map Legend


Flown Route
Filed Route
Departure Airport
Arrival Airport
Navaid (VOR, NDB)
Fix

Horizontal Profiles

Position Reports

Time Latitude Longitude Heading Altitude Ground
Speed
19-May-20 11:07 47.449273 -122.303270 189 440ft 0kts
19-May-20 11:08 47.449273 -122.303270 189 440ft 0kts
19-May-20 11:09 47.449273 -122.303270 189 440ft 0kts
19-May-20 11:10 47.449273 -122.303270 189 440ft 0kts
19-May-20 11:11 47.449273 -122.303270 189 440ft 0kts
19-May-20 11:12 47.449273 -122.303270 189 440ft 0kts
19-May-20 11:13 47.449273 -122.303270 189 440ft 0kts
19-May-20 11:14 47.449273 -122.303270 189 440ft 0kts
19-May-20 11:15 47.449273 -122.303270 189 440ft 0kts
19-May-20 11:16 47.449273 -122.303270 189 440ft 0kts
19-May-20 11:17 47.449273 -122.303270 189 440ft 0kts
19-May-20 11:18 47.449273 -122.303270 189 440ft 0kts
19-May-20 11:19 47.449273 -122.303270 189 440ft 0kts
19-May-20 11:20 47.449273 -122.303270 189 440ft 0kts
19-May-20 11:21 47.449273 -122.303270 189 440ft 0kts
19-May-20 11:22 47.449273 -122.303270 189 440ft 0kts
19-May-20 11:23 47.449273 -122.303270 189 440ft 0kts
19-May-20 11:24 47.449273 -122.303270 189 440ft 0kts
19-May-20 11:25 47.449273 -122.303270 189 440ft 0kts
19-May-20 11:26 47.449273 -122.303270 189 440ft 0kts
19-May-20 11:27 47.449273 -122.303270 189 440ft 0kts
19-May-20 11:28 47.449452 -122.303222 191 440ft 2kts
19-May-20 11:29 47.450030 -122.302679 270 440ft 2kts
19-May-20 11:30 47.450029 -122.302600 270 440ft 0kts
19-May-20 11:31 47.450029 -122.302600 270 440ft 0kts
19-May-20 11:32 47.450029 -122.302600 270 440ft 0kts
19-May-20 11:33 47.450045 -122.304299 270 440ft 5kts
19-May-20 11:34 47.451130 -122.306253 359 440ft 17kts
19-May-20 11:35 47.457608 -122.306200 1 440ft 22kts
19-May-20 11:36 47.462913 -122.306168 1 440ft 14kts
19-May-20 11:37 47.462454 -122.307754 180 440ft 38kts
19-May-20 11:38 47.425780 -122.306961 180 2319ft 165kts
19-May-20 11:39 47.365391 -122.305827 178 2995ft 248kts
19-May-20 11:40 47.296532 -122.299950 178 2996ft 247kts
19-May-20 11:41 47.227700 -122.296317 181 5565ft 242kts
19-May-20 11:42 47.159395 -122.299130 182 8207ft 252kts
19-May-20 11:43 47.087785 -122.303207 182 10406ft 261kts
19-May-20 11:44 47.014185 -122.306933 181 12273ft 269kts
19-May-20 11:45 46.937972 -122.310226 180 13751ft 277kts
19-May-20 11:46 46.860448 -122.310027 178 15270ft 275kts
19-May-20 11:47 46.783793 -122.309782 178 16689ft 279kts
19-May-20 11:48 46.700592 -122.309671 178 16985ft 320kts
19-May-20 11:49 46.607769 -122.309608 179 16990ft 345kts
19-May-20 11:50 46.509603 -122.309775 179 16987ft 358kts
19-May-20 11:51 46.409137 -122.309550 179 16988ft 365kts
19-May-20 11:52 46.308191 -122.309722 178 16059ft 357kts
19-May-20 11:53 46.213934 -122.331577 202 13731ft 350kts
19-May-20 11:54 46.126006 -122.383044 201 11739ft 323kts
19-May-20 11:55 46.045053 -122.426843 201 9604ft 292kts
19-May-20 11:56 45.970179 -122.466840 202 7589ft 274kts
19-May-20 11:57 45.907378 -122.516898 224 6315ft 261kts
19-May-20 11:58 45.854375 -122.585167 223 5097ft 248kts
19-May-20 11:59 45.805249 -122.647231 223 4997ft 225kts
19-May-20 12:00 45.761159 -122.710597 240 4988ft 222kts
19-May-20 12:01 45.765867 -122.793666 293 4877ft 214kts
19-May-20 12:02 45.773087 -122.870682 227 3666ft 207kts
19-May-20 12:04 45.720669 -122.882444 175 3006ft 182kts
19-May-20 12:05 45.677487 -122.851520 113 3007ft 197kts
19-May-20 12:06 45.654871 -122.776913 116 2422ft 201kts
19-May-20 12:07 45.633292 -122.718630 119 1599ft 133kts
19-May-20 12:08 45.616190 -122.675642 118 902ft 126kts
19-May-20 12:09 45.599640 -122.633001 117 242ft 118kts
19-May-20 12:10 45.587660 -122.601600 83 37ft 19kts
19-May-20 12:11 45.587949 -122.600630 62 37ft 0kts
19-May-20 12:12 45.589463 -122.598855 28 37ft 4kts
19-May-20 12:13 45.589258 -122.599021 29 37ft 0kts
19-May-20 12:14 45.589588 -122.598758 29 37ft 0kts
19-May-20 12:15 45.589588 -122.598758 29 37ft 0kts
19-May-20 12:16 45.589588 -122.598758 29 37ft 0kts
19-May-20 12:17 45.589588 -122.598758 29 37ft 0kts
19-May-20 12:18 45.589588 -122.598758 29 37ft 0kts
19-May-20 12:19 45.589588 -122.598758 29 37ft 0kts
19-May-20 12:20 45.589588 -122.598758 29 37ft 0kts
19-May-20 12:20 45.589588 -122.598758 29 37ft 0kts
19-May-20 12:22 45.589588 -122.598758 29 37ft 0kts
19-May-20 12:23 45.589588 -122.598758 29 37ft 0kts

Navigation Log

Ident Type
Flight plan parsing failed, navigation log unavailable